KLM1663 EHAM-LIPE
Flight info
| Callsign | KLM1663 |
|---|---|
| Flight time | 1h 37m |
| Altitude | 35000 |
| Route | EDUPO Z739 MISGO/N0466F390 DCT ASBON DCT TUSUK DCT ULNOK L607 ABUKA DCT TEDGO DCT BATUB DCT TIRUL M738 NATAG DCT LORLO DCT ADOSA/N0384F190 M738 BENUS |
| Aircraft | A332/H-SDE3GHIJ2J3J5M1RVWXY/LB2D1 |
Departure
| Time | 2026-05-05 10:53 |
|---|---|
| Airport | Amsterdam Airport Schiphol (EHAM) |
Arrival
| Time | 2026-05-05 12:30 |
|---|---|
| Airport | Bologna Guglielmo Marconi Airport (LIPE) |
| Time | Latitude | Longitude | Altitude | Speed | Heading |
|---|---|---|---|---|---|
| 2026-05-05 10:19 | 52.31299 | 4.75814 | 11 ft | 0 kts | 266° |
| 2026-05-05 10:34 | 52.31299 | 4.75823 | 11 ft | 2 kts | 266° |
| 2026-05-05 10:34 | 52.31300 | 4.75845 | 12 ft | 2 kts | 267° |
| 2026-05-05 10:35 | 52.31301 | 4.75866 | 12 ft | 2 kts | 269° |
| 2026-05-05 10:35 | 52.31299 | 4.75888 | 12 ft | 2 kts | 292° |
| 2026-05-05 10:35 | 52.31292 | 4.75910 | 12 ft | 2 kts | 310° |
| 2026-05-05 10:35 | 52.31280 | 4.75927 | 13 ft | 2 kts | 330° |
| 2026-05-05 10:36 | 52.31267 | 4.75936 | 13 ft | 2 kts | 349° |
| 2026-05-05 10:36 | 52.31260 | 4.75938 | 14 ft | 1 kts | 358° |
| 2026-05-05 10:36 | 52.31257 | 4.75938 | 14 ft | 0 kts | 357° |
| 2026-05-05 10:38 | 52.31258 | 4.75938 | 14 ft | 0 kts | 357° |
| 2026-05-05 10:38 | 52.31269 | 4.75937 | 13 ft | 4 kts | 357° |
| 2026-05-05 10:38 | 52.31306 | 4.75935 | 12 ft | 8 kts | 358° |
| 2026-05-05 10:38 | 52.31369 | 4.75930 | 10 ft | 11 kts | 357° |
| 2026-05-05 10:39 | 52.31428 | 4.75888 | 9 ft | 11 kts | 308° |
| 2026-05-05 10:39 | 52.31441 | 4.75779 | 10 ft | 10 kts | 269° |
| 2026-05-05 10:39 | 52.31438 | 4.75675 | 11 ft | 10 kts | 268° |
| 2026-05-05 10:39 | 52.31434 | 4.75566 | 11 ft | 11 kts | 266° |
| 2026-05-05 10:40 | 52.31428 | 4.75432 | 9 ft | 16 kts | 265° |
| 2026-05-05 10:40 | 52.31419 | 4.75240 | 7 ft | 21 kts | 266° |
| 2026-05-05 10:40 | 52.31413 | 4.75004 | 6 ft | 24 kts | 268° |
| 2026-05-05 10:40 | 52.31406 | 4.74759 | 3 ft | 25 kts | 267° |
| 2026-05-05 10:41 | 52.31398 | 4.74530 | 3 ft | 18 kts | 266° |
| 2026-05-05 10:41 | 52.31394 | 4.74400 | 3 ft | 13 kts | 267° |
| 2026-05-05 10:41 | 52.31390 | 4.74271 | 4 ft | 11 kts | 267° |
| 2026-05-05 10:41 | 52.31399 | 4.74185 | 4 ft | 7 kts | 308° |
| 2026-05-05 10:42 | 52.31498 | 4.74144 | 4 ft | 12 kts | 5° |
| 2026-05-05 10:42 | 52.31592 | 4.74157 | 2 ft | 21 kts | 4° |
| 2026-05-05 10:42 | 52.31721 | 4.74170 | 1 ft | 22 kts | 2° |
| 2026-05-05 10:43 | 52.31850 | 4.74181 | 1 ft | 21 kts | 3° |
| 2026-05-05 10:43 | 52.31962 | 4.74184 | 1 ft | 15 kts | 349° |
| 2026-05-05 10:43 | 52.32021 | 4.74111 | 1 ft | 12 kts | 302° |
| 2026-05-05 10:43 | 52.32040 | 4.73986 | 1 ft | 13 kts | 276° |
| 2026-05-05 10:44 | 52.32046 | 4.73843 | 3 ft | 16 kts | 273° |
| 2026-05-05 10:44 | 52.32051 | 4.73671 | 4 ft | 18 kts | 273° |
| 2026-05-05 10:44 | 52.32058 | 4.73496 | 4 ft | 18 kts | 280° |
| 2026-05-05 10:44 | 52.32109 | 4.73334 | 4 ft | 18 kts | 312° |
| 2026-05-05 10:45 | 52.32194 | 4.73205 | 1 ft | 19 kts | 320° |
| 2026-05-05 10:45 | 52.32287 | 4.73077 | 1 ft | 19 kts | 319° |
| 2026-05-05 10:45 | 52.32377 | 4.72948 | 1 ft | 19 kts | 320° |
| 2026-05-05 10:45 | 52.32467 | 4.72822 | 1 ft | 19 kts | 320° |
| 2026-05-05 10:46 | 52.32559 | 4.72694 | 2 ft | 20 kts | 319° |
| 2026-05-05 10:46 | 52.32658 | 4.72550 | 4 ft | 22 kts | 315° |
| 2026-05-05 10:46 | 52.32754 | 4.72382 | 4 ft | 23 kts | 311° |
| 2026-05-05 10:46 | 52.32850 | 4.72204 | 4 ft | 24 kts | 311° |
| 2026-05-05 10:47 | 52.32946 | 4.72025 | 3 ft | 24 kts | 311° |
| 2026-05-05 10:47 | 52.33045 | 4.71840 | 1 ft | 24 kts | 311° |
| 2026-05-05 10:47 | 52.33117 | 4.71702 | 1 ft | 15 kts | 308° |
| 2026-05-05 10:47 | 52.33145 | 4.71560 | 1 ft | 15 kts | 261° |
| 2026-05-05 10:48 | 52.33094 | 4.71438 | 1 ft | 16 kts | 224° |
| 2026-05-05 10:48 | 52.33026 | 4.71336 | 1 ft | 16 kts | 221° |
| 2026-05-05 10:48 | 52.32951 | 4.71231 | 1 ft | 16 kts | 220° |
| 2026-05-05 10:48 | 52.32887 | 4.71128 | 1 ft | 14 kts | 237° |
| 2026-05-05 10:49 | 52.32867 | 4.71017 | 1 ft | 8 kts | 267° |
| 2026-05-05 10:49 | 52.32869 | 4.70946 | 1 ft | 5 kts | 281° |
| 2026-05-05 10:49 | 52.32893 | 4.70905 | 1 ft | 6 kts | 337° |
| 2026-05-05 10:49 | 52.32930 | 4.70896 | 1 ft | 3 kts | 357° |
| 2026-05-05 10:50 | 52.32934 | 4.70896 | 1 ft | 0 kts | 358° |
| 2026-05-05 10:50 | 52.32938 | 4.70896 | 1 ft | 1 kts | 358° |
| 2026-05-05 10:50 | 52.32954 | 4.70895 | 1 ft | 3 kts | 359° |
| 2026-05-05 10:50 | 52.32966 | 4.70895 | 1 ft | 0 kts | 0° |
| 2026-05-05 10:51 | 52.32969 | 4.70895 | 1 ft | 1 kts | 0° |
| 2026-05-05 10:51 | 52.32987 | 4.70896 | 1 ft | 6 kts | 2° |
| 2026-05-05 10:52 | 52.33182 | 4.70916 | 1 ft | 63 kts | 3° |
| 2026-05-05 10:52 | 52.33712 | 4.70960 | 1 ft | 116 kts | 4° |
| 2026-05-05 10:52 | 52.34533 | 4.71038 | 2 ft | 161 kts | 2° |
| 2026-05-05 10:52 | 52.35548 | 4.71118 | 278 ft | 177 kts | 2° |
| 2026-05-05 10:53 | 52.36562 | 4.71200 | 973 ft | 168 kts | 4° |
| 2026-05-05 10:53 | 52.37517 | 4.71308 | 1546 ft | 168 kts | 6° |
| 2026-05-05 10:53 | 52.38543 | 4.71463 | 1859 ft | 186 kts | 6° |
| 2026-05-05 10:53 | 52.39700 | 4.71613 | 2140 ft | 206 kts | 4° |
| 2026-05-05 10:54 | 52.41026 | 4.71736 | 2557 ft | 222 kts | 6° |
| 2026-05-05 10:54 | 52.42300 | 4.72148 | 2952 ft | 237 kts | 19° |
| 2026-05-05 10:54 | 52.43611 | 4.73110 | 3374 ft | 252 kts | 28° |
| 2026-05-05 10:54 | 52.44953 | 4.74327 | 3887 ft | 263 kts | 30° |
| 2026-05-05 10:55 | 52.46309 | 4.75611 | 4582 ft | 266 kts | 31° |
| 2026-05-05 10:55 | 52.47507 | 4.77266 | 5276 ft | 271 kts | 52° |
| 2026-05-05 10:55 | 52.48188 | 4.79490 | 5904 ft | 275 kts | 76° |
| 2026-05-05 10:55 | 52.48387 | 4.82077 | 6533 ft | 278 kts | 86° |
| 2026-05-05 10:56 | 52.48480 | 4.84785 | 7161 ft | 283 kts | 87° |
| 2026-05-05 10:56 | 52.48574 | 4.87462 | 7819 ft | 286 kts | 88° |
| 2026-05-05 10:56 | 52.48453 | 4.90243 | 8433 ft | 289 kts | 107° |
| 2026-05-05 10:56 | 52.47688 | 4.92727 | 9046 ft | 290 kts | 131° |
| 2026-05-05 10:57 | 52.46433 | 4.94539 | 9681 ft | 289 kts | 147° |
| 2026-05-05 10:57 | 52.45071 | 4.96036 | 10279 ft | 292 kts | 149° |
| 2026-05-05 10:57 | 52.43567 | 4.97661 | 10737 ft | 303 kts | 149° |
| 2026-05-05 10:57 | 52.42039 | 4.99338 | 11053 ft | 319 kts | 148° |
| 2026-05-05 10:58 | 52.40499 | 5.01071 | 11359 ft | 334 kts | 147° |
| 2026-05-05 10:58 | 52.38908 | 5.02890 | 11621 ft | 348 kts | 147° |
| 2026-05-05 10:58 | 52.37210 | 5.04847 | 11952 ft | 360 kts | 147° |
| 2026-05-05 10:58 | 52.35469 | 5.06878 | 12540 ft | 365 kts | 145° |
| 2026-05-05 10:59 | 52.33799 | 5.09057 | 13188 ft | 368 kts | 141° |
| 2026-05-05 10:59 | 52.32190 | 5.11498 | 13830 ft | 373 kts | 137° |
| 2026-05-05 10:59 | 52.30710 | 5.14084 | 14424 ft | 377 kts | 134° |
| 2026-05-05 10:59 | 52.29320 | 5.16628 | 14997 ft | 380 kts | 133° |
| 2026-05-05 11:00 | 52.27825 | 5.19387 | 15606 ft | 383 kts | 133° |
| 2026-05-05 11:00 | 52.26297 | 5.22196 | 16248 ft | 386 kts | 134° |
| 2026-05-05 11:00 | 52.24770 | 5.25079 | 16845 ft | 390 kts | 131° |
| 2026-05-05 11:00 | 52.23292 | 5.28172 | 17460 ft | 394 kts | 128° |
| 2026-05-05 11:01 | 52.21873 | 5.31415 | 18095 ft | 397 kts | 127° |
| 2026-05-05 11:01 | 52.20423 | 5.34773 | 18709 ft | 401 kts | 127° |
| 2026-05-05 11:01 | 52.18996 | 5.38084 | 19298 ft | 405 kts | 127° |
| 2026-05-05 11:01 | 52.17542 | 5.41448 | 19851 ft | 408 kts | 128° |
| 2026-05-05 11:02 | 52.16054 | 5.44874 | 20401 ft | 412 kts | 128° |
| 2026-05-05 11:02 | 52.14564 | 5.48299 | 20951 ft | 416 kts | 128° |
| 2026-05-05 11:02 | 52.13069 | 5.51724 | 21506 ft | 419 kts | 128° |
| 2026-05-05 11:02 | 52.11541 | 5.55219 | 22018 ft | 423 kts | 128° |
| 2026-05-05 11:03 | 52.09926 | 5.58901 | 22533 ft | 426 kts | 129° |
| 2026-05-05 11:03 | 52.08316 | 5.62568 | 23079 ft | 429 kts | 129° |
| 2026-05-05 11:03 | 52.06671 | 5.66263 | 23609 ft | 431 kts | 131° |
| 2026-05-05 11:03 | 52.04945 | 5.69772 | 24096 ft | 432 kts | 135° |
| 2026-05-05 11:04 | 52.03074 | 5.73280 | 24609 ft | 434 kts | 135° |
| 2026-05-05 11:04 | 52.01193 | 5.76781 | 25170 ft | 436 kts | 136° |
| 2026-05-05 11:04 | 51.99337 | 5.80233 | 25644 ft | 438 kts | 136° |
| 2026-05-05 11:04 | 51.97451 | 5.83738 | 26110 ft | 440 kts | 136° |
| 2026-05-05 11:05 | 51.95582 | 5.87231 | 26590 ft | 442 kts | 136° |
| 2026-05-05 11:05 | 51.93687 | 5.90768 | 27047 ft | 444 kts | 136° |
| 2026-05-05 11:05 | 51.91815 | 5.94261 | 27452 ft | 447 kts | 136° |
| 2026-05-05 11:05 | 51.89941 | 5.97751 | 27869 ft | 448 kts | 136° |
| 2026-05-05 11:06 | 51.88031 | 6.01302 | 28291 ft | 450 kts | 136° |
| 2026-05-05 11:06 | 51.86136 | 6.04822 | 28723 ft | 452 kts | 136° |
| 2026-05-05 11:06 | 51.84232 | 6.08341 | 29105 ft | 454 kts | 137° |
| 2026-05-05 11:06 | 51.82299 | 6.11895 | 29488 ft | 456 kts | 137° |
| 2026-05-05 11:07 | 51.80405 | 6.15371 | 29855 ft | 458 kts | 137° |
| 2026-05-05 11:07 | 51.78479 | 6.18896 | 30232 ft | 459 kts | 137° |
| 2026-05-05 11:07 | 51.76574 | 6.22384 | 30697 ft | 458 kts | 137° |
| 2026-05-05 11:07 | 51.74700 | 6.25808 | 31229 ft | 455 kts | 137° |
| 2026-05-05 11:08 | 51.72833 | 6.29210 | 31669 ft | 454 kts | 137° |
| 2026-05-05 11:08 | 51.70972 | 6.32598 | 32022 ft | 455 kts | 137° |
| 2026-05-05 11:08 | 51.69091 | 6.36017 | 32366 ft | 456 kts | 137° |
| 2026-05-05 11:08 | 51.67208 | 6.39435 | 32702 ft | 457 kts | 137° |
| 2026-05-05 11:09 | 51.65334 | 6.42834 | 33033 ft | 458 kts | 137° |
| 2026-05-05 11:09 | 51.63437 | 6.46272 | 33365 ft | 459 kts | 137° |
| 2026-05-05 11:09 | 51.61540 | 6.49704 | 33653 ft | 460 kts | 137° |
| 2026-05-05 11:09 | 51.59663 | 6.53095 | 33897 ft | 463 kts | 137° |
| 2026-05-05 11:10 | 51.57765 | 6.56518 | 34109 ft | 465 kts | 137° |
| 2026-05-05 11:10 | 51.55841 | 6.59984 | 34372 ft | 467 kts | 137° |
| 2026-05-05 11:10 | 51.53913 | 6.63457 | 34636 ft | 469 kts | 137° |
| 2026-05-05 11:10 | 51.51975 | 6.66945 | 34870 ft | 470 kts | 138° |
| 2026-05-05 11:11 | 51.50042 | 6.70422 | 34952 ft | 472 kts | 138° |
| 2026-05-05 11:11 | 51.46121 | 6.77447 | 34959 ft | 472 kts | 138° |
| 2026-05-05 11:12 | 51.42019 | 6.84151 | 34960 ft | 467 kts | 144° |
| 2026-05-05 11:12 | 51.37604 | 6.90050 | 34963 ft | 462 kts | 149° |
| 2026-05-05 11:13 | 51.32995 | 6.95078 | 34965 ft | 457 kts | 154° |
| 2026-05-05 11:13 | 51.28179 | 6.99890 | 34965 ft | 457 kts | 154° |
| 2026-05-05 11:14 | 51.23454 | 7.04624 | 34966 ft | 458 kts | 154° |
| 2026-05-05 11:14 | 51.18680 | 7.09401 | 34963 ft | 457 kts | 154° |
| 2026-05-05 11:15 | 51.13924 | 7.14152 | 34964 ft | 457 kts | 154° |
| 2026-05-05 11:15 | 51.09158 | 7.18902 | 34963 ft | 457 kts | 154° |
| 2026-05-05 11:16 | 51.04327 | 7.23702 | 34960 ft | 458 kts | 154° |
| 2026-05-05 11:16 | 50.99524 | 7.28463 | 34955 ft | 457 kts | 154° |
| 2026-05-05 11:17 | 50.94730 | 7.33205 | 34956 ft | 457 kts | 154° |
| 2026-05-05 11:17 | 50.89938 | 7.37934 | 34958 ft | 457 kts | 154° |
| 2026-05-05 11:18 | 50.85128 | 7.42671 | 34962 ft | 457 kts | 153° |
| 2026-05-05 11:18 | 50.80306 | 7.47410 | 34959 ft | 456 kts | 153° |
| 2026-05-05 11:19 | 50.75473 | 7.52147 | 34957 ft | 456 kts | 153° |
| 2026-05-05 11:19 | 50.70673 | 7.56876 | 34958 ft | 458 kts | 152° |
| 2026-05-05 11:20 | 50.65934 | 7.61784 | 34965 ft | 458 kts | 152° |
| 2026-05-05 11:20 | 50.61108 | 7.66804 | 35329 ft | 461 kts | 152° |
| 2026-05-05 11:20 | 50.58695 | 7.69305 | 35691 ft | 458 kts | 152° |
| 2026-05-05 11:21 | 50.56235 | 7.71849 | 36035 ft | 456 kts | 152° |
| 2026-05-05 11:21 | 50.53798 | 7.74363 | 36312 ft | 455 kts | 152° |
| 2026-05-05 11:21 | 50.51329 | 7.76905 | 36557 ft | 455 kts | 152° |
| 2026-05-05 11:21 | 50.48901 | 7.79401 | 36824 ft | 455 kts | 152° |
| 2026-05-05 11:22 | 50.46550 | 7.81813 | 37131 ft | 455 kts | 152° |
| 2026-05-05 11:22 | 50.44165 | 7.84259 | 37460 ft | 454 kts | 152° |
| 2026-05-05 11:22 | 50.41801 | 7.86679 | 37735 ft | 454 kts | 152° |
| 2026-05-05 11:22 | 50.39379 | 7.89154 | 37947 ft | 454 kts | 152° |
| 2026-05-05 11:23 | 50.37011 | 7.91573 | 37968 ft | 455 kts | 152° |
| 2026-05-05 11:23 | 50.32216 | 7.96464 | 37964 ft | 455 kts | 152° |
| 2026-05-05 11:24 | 50.27437 | 8.01327 | 37972 ft | 456 kts | 152° |
| 2026-05-05 11:24 | 50.22650 | 8.06186 | 37972 ft | 456 kts | 152° |
| 2026-05-05 11:25 | 50.17941 | 8.10954 | 37976 ft | 455 kts | 152° |
| 2026-05-05 11:25 | 50.13209 | 8.15694 | 37978 ft | 454 kts | 153° |
| 2026-05-05 11:26 | 50.08420 | 8.20129 | 37981 ft | 454 kts | 153° |
| 2026-05-05 11:26 | 50.03564 | 8.24637 | 37981 ft | 454 kts | 153° |
| 2026-05-05 11:27 | 49.98751 | 8.29092 | 37985 ft | 454 kts | 153° |
| 2026-05-05 11:27 | 49.94010 | 8.33465 | 37979 ft | 454 kts | 153° |
| 2026-05-05 11:28 | 49.89185 | 8.37942 | 37977 ft | 455 kts | 152° |
| 2026-05-05 11:28 | 49.84654 | 8.42796 | 37980 ft | 458 kts | 147° |
| 2026-05-05 11:29 | 49.80426 | 8.48280 | 37975 ft | 462 kts | 141° |
| 2026-05-05 11:29 | 49.76196 | 8.53935 | 37976 ft | 459 kts | 148° |
| 2026-05-05 11:30 | 49.71409 | 8.58538 | 37977 ft | 453 kts | 156° |
| 2026-05-05 11:30 | 49.66298 | 8.61846 | 37981 ft | 449 kts | 166° |
| 2026-05-05 11:31 | 49.60911 | 8.63894 | 37982 ft | 444 kts | 173° |
| 2026-05-05 11:31 | 49.55480 | 8.65413 | 37981 ft | 444 kts | 174° |
| 2026-05-05 11:32 | 49.50124 | 8.67080 | 37984 ft | 445 kts | 170° |
| 2026-05-05 11:32 | 49.44763 | 8.69504 | 37980 ft | 448 kts | 165° |
| 2026-05-05 11:33 | 49.39679 | 8.72621 | 37984 ft | 451 kts | 160° |
| 2026-05-05 11:33 | 49.34518 | 8.76227 | 37980 ft | 451 kts | 160° |
| 2026-05-05 11:34 | 49.29465 | 8.79730 | 37976 ft | 452 kts | 160° |
| 2026-05-05 11:34 | 49.24386 | 8.83244 | 37972 ft | 451 kts | 160° |
| 2026-05-05 11:35 | 49.19376 | 8.86703 | 37967 ft | 451 kts | 160° |
| 2026-05-05 11:35 | 49.14307 | 8.90197 | 37956 ft | 451 kts | 160° |
| 2026-05-05 11:36 | 49.09232 | 8.93684 | 37961 ft | 451 kts | 160° |
| 2026-05-05 11:36 | 49.04181 | 8.97146 | 37964 ft | 451 kts | 160° |
| 2026-05-05 11:37 | 48.99069 | 9.00644 | 37959 ft | 452 kts | 160° |
| 2026-05-05 11:37 | 48.93975 | 9.04123 | 37957 ft | 452 kts | 160° |
| 2026-05-05 11:38 | 48.88919 | 9.07568 | 37969 ft | 452 kts | 160° |
| 2026-05-05 11:38 | 48.83794 | 9.11053 | 37978 ft | 452 kts | 160° |
| 2026-05-05 11:39 | 48.78630 | 9.14556 | 37984 ft | 452 kts | 160° |
| 2026-05-05 11:39 | 48.73476 | 9.18045 | 37978 ft | 452 kts | 160° |
| 2026-05-05 11:40 | 48.68397 | 9.21478 | 37987 ft | 451 kts | 160° |
| 2026-05-05 11:40 | 48.63365 | 9.24850 | 37986 ft | 451 kts | 161° |
| 2026-05-05 11:41 | 48.58261 | 9.27729 | 37986 ft | 449 kts | 165° |
| 2026-05-05 11:41 | 48.53084 | 9.30376 | 37989 ft | 449 kts | 165° |
| 2026-05-05 11:42 | 48.47892 | 9.33040 | 37993 ft | 449 kts | 165° |
| 2026-05-05 11:42 | 48.42637 | 9.35727 | 37993 ft | 449 kts | 164° |
| 2026-05-05 11:43 | 48.37379 | 9.38413 | 37992 ft | 449 kts | 165° |
| 2026-05-05 11:43 | 48.32169 | 9.41066 | 37994 ft | 449 kts | 165° |
| 2026-05-05 11:44 | 48.26875 | 9.43755 | 37995 ft | 449 kts | 164° |
| 2026-05-05 11:44 | 48.21609 | 9.46426 | 37995 ft | 449 kts | 164° |
| 2026-05-05 11:45 | 48.16436 | 9.49046 | 37989 ft | 449 kts | 164° |
| 2026-05-05 11:45 | 48.11152 | 9.51714 | 37986 ft | 449 kts | 164° |
| 2026-05-05 11:46 | 48.05825 | 9.54620 | 37992 ft | 451 kts | 160° |
| 2026-05-05 11:46 | 48.00723 | 9.58198 | 37993 ft | 454 kts | 155° |
| 2026-05-05 11:47 | 47.95551 | 9.62810 | 37988 ft | 457 kts | 149° |
| 2026-05-05 11:47 | 47.90811 | 9.67672 | 37987 ft | 457 kts | 149° |
| 2026-05-05 11:48 | 47.83557 | 9.75075 | 37991 ft | 458 kts | 149° |
| 2026-05-05 11:48 | 47.78818 | 9.79890 | 37998 ft | 458 kts | 149° |
| 2026-05-05 11:49 | 47.74096 | 9.84677 | 38002 ft | 458 kts | 149° |
| 2026-05-05 11:49 | 47.69357 | 9.89471 | 37999 ft | 458 kts | 149° |
| 2026-05-05 11:50 | 47.64356 | 9.94518 | 38005 ft | 458 kts | 149° |
| 2026-05-05 11:50 | 47.59536 | 9.99371 | 38030 ft | 458 kts | 149° |
| 2026-05-05 11:51 | 47.54780 | 10.04151 | 38045 ft | 458 kts | 149° |
| 2026-05-05 11:51 | 47.50008 | 10.08933 | 38056 ft | 459 kts | 149° |
| 2026-05-05 11:52 | 47.45270 | 10.13671 | 38072 ft | 460 kts | 149° |
| 2026-05-05 11:52 | 47.40554 | 10.18379 | 38072 ft | 460 kts | 149° |
| 2026-05-05 11:53 | 47.35656 | 10.23257 | 38082 ft | 460 kts | 149° |
| 2026-05-05 11:53 | 47.30876 | 10.28007 | 38098 ft | 461 kts | 149° |
| 2026-05-05 11:54 | 47.26223 | 10.32620 | 38114 ft | 461 kts | 149° |
| 2026-05-05 11:54 | 47.21410 | 10.37384 | 38120 ft | 461 kts | 149° |
| 2026-05-05 11:55 | 47.16416 | 10.42318 | 38117 ft | 461 kts | 149° |
| 2026-05-05 11:55 | 47.11598 | 10.47024 | 38127 ft | 461 kts | 150° |
| 2026-05-05 11:56 | 47.06654 | 10.51146 | 38140 ft | 458 kts | 156° |
| 2026-05-05 11:56 | 47.01576 | 10.54476 | 38144 ft | 456 kts | 161° |
| 2026-05-05 11:57 | 46.96168 | 10.57160 | 38145 ft | 454 kts | 166° |
| 2026-05-05 11:57 | 46.90733 | 10.59610 | 38153 ft | 455 kts | 165° |
| 2026-05-05 11:58 | 46.85443 | 10.62006 | 38149 ft | 455 kts | 165° |
| 2026-05-05 11:58 | 46.80039 | 10.64439 | 37738 ft | 457 kts | 165° |
| 2026-05-05 11:59 | 46.77331 | 10.65656 | 37265 ft | 457 kts | 166° |
| 2026-05-05 11:59 | 46.74557 | 10.66900 | 36792 ft | 456 kts | 166° |
| 2026-05-05 11:59 | 46.71774 | 10.68040 | 36369 ft | 455 kts | 168° |
| 2026-05-05 11:59 | 46.69027 | 10.68969 | 35943 ft | 454 kts | 170° |
| 2026-05-05 12:00 | 46.66209 | 10.69884 | 35478 ft | 455 kts | 170° |
| 2026-05-05 12:00 | 46.63494 | 10.70771 | 34993 ft | 455 kts | 170° |
| 2026-05-05 12:00 | 46.60792 | 10.71654 | 34466 ft | 455 kts | 170° |
| 2026-05-05 12:00 | 46.58122 | 10.72527 | 33922 ft | 455 kts | 169° |
| 2026-05-05 12:01 | 46.55439 | 10.73404 | 33383 ft | 454 kts | 169° |
| 2026-05-05 12:01 | 46.52739 | 10.74287 | 32844 ft | 453 kts | 169° |
| 2026-05-05 12:01 | 46.50102 | 10.75147 | 32310 ft | 453 kts | 169° |
| 2026-05-05 12:01 | 46.47385 | 10.76032 | 31762 ft | 452 kts | 169° |
| 2026-05-05 12:02 | 46.44752 | 10.76888 | 31224 ft | 451 kts | 169° |
| 2026-05-05 12:02 | 46.42060 | 10.77763 | 30666 ft | 451 kts | 169° |
| 2026-05-05 12:02 | 46.39388 | 10.78631 | 30109 ft | 451 kts | 169° |
| 2026-05-05 12:02 | 46.36606 | 10.79533 | 29651 ft | 448 kts | 169° |
| 2026-05-05 12:03 | 46.33844 | 10.80428 | 29304 ft | 447 kts | 169° |
| 2026-05-05 12:03 | 46.31184 | 10.81290 | 28955 ft | 445 kts | 170° |
| 2026-05-05 12:03 | 46.28532 | 10.82147 | 28593 ft | 442 kts | 169° |
| 2026-05-05 12:03 | 46.25878 | 10.83005 | 28225 ft | 440 kts | 169° |
| 2026-05-05 12:04 | 46.23272 | 10.83847 | 27867 ft | 437 kts | 169° |
| 2026-05-05 12:04 | 46.20646 | 10.84693 | 27505 ft | 434 kts | 169° |
| 2026-05-05 12:04 | 46.18140 | 10.85500 | 27151 ft | 432 kts | 169° |
| 2026-05-05 12:04 | 46.15567 | 10.86327 | 26783 ft | 429 kts | 169° |
| 2026-05-05 12:05 | 46.13073 | 10.87129 | 26416 ft | 423 kts | 169° |
| 2026-05-05 12:05 | 46.10564 | 10.87936 | 26092 ft | 419 kts | 169° |
| 2026-05-05 12:05 | 46.08020 | 10.88753 | 25727 ft | 417 kts | 169° |
| 2026-05-05 12:05 | 46.05511 | 10.89557 | 25358 ft | 415 kts | 169° |
| 2026-05-05 12:06 | 46.03004 | 10.90359 | 24992 ft | 412 kts | 169° |
| 2026-05-05 12:06 | 46.00525 | 10.91153 | 24619 ft | 410 kts | 169° |
| 2026-05-05 12:06 | 45.98067 | 10.91938 | 24254 ft | 407 kts | 169° |
| 2026-05-05 12:06 | 45.95607 | 10.92723 | 23893 ft | 404 kts | 169° |
| 2026-05-05 12:07 | 45.93168 | 10.93502 | 23523 ft | 402 kts | 169° |
| 2026-05-05 12:07 | 45.90758 | 10.94270 | 23168 ft | 399 kts | 169° |
| 2026-05-05 12:07 | 45.88357 | 10.95034 | 22810 ft | 397 kts | 169° |
| 2026-05-05 12:07 | 45.85973 | 10.95793 | 22453 ft | 395 kts | 169° |
| 2026-05-05 12:08 | 45.83612 | 10.96544 | 22095 ft | 392 kts | 169° |
| 2026-05-05 12:08 | 45.81256 | 10.97292 | 21733 ft | 390 kts | 169° |
| 2026-05-05 12:08 | 45.78920 | 10.98036 | 21379 ft | 388 kts | 169° |
| 2026-05-05 12:08 | 45.76450 | 10.98820 | 21002 ft | 385 kts | 169° |
| 2026-05-05 12:09 | 45.74101 | 10.99564 | 20640 ft | 383 kts | 169° |
| 2026-05-05 12:09 | 45.71845 | 11.00280 | 20294 ft | 381 kts | 169° |
| 2026-05-05 12:09 | 45.69595 | 11.00993 | 19935 ft | 379 kts | 169° |
| 2026-05-05 12:09 | 45.67354 | 11.01701 | 19585 ft | 376 kts | 169° |
| 2026-05-05 12:10 | 45.65145 | 11.02398 | 19246 ft | 374 kts | 169° |
| 2026-05-05 12:10 | 45.62923 | 11.02990 | 18917 ft | 371 kts | 172° |
| 2026-05-05 12:10 | 45.60684 | 11.03534 | 18565 ft | 370 kts | 172° |
| 2026-05-05 12:10 | 45.58468 | 11.04072 | 18206 ft | 368 kts | 172° |
| 2026-05-05 12:11 | 45.56184 | 11.04625 | 17855 ft | 365 kts | 172° |
| 2026-05-05 12:11 | 45.53941 | 11.05010 | 17410 ft | 364 kts | 179° |
| 2026-05-05 12:11 | 45.51624 | 11.04963 | 16662 ft | 372 kts | 183° |
| 2026-05-05 12:11 | 45.49319 | 11.04802 | 15899 ft | 378 kts | 184° |
| 2026-05-05 12:12 | 45.46998 | 11.04638 | 15031 ft | 377 kts | 183° |
| 2026-05-05 12:12 | 45.44687 | 11.04496 | 14028 ft | 371 kts | 183° |
| 2026-05-05 12:12 | 45.42439 | 11.04377 | 13119 ft | 363 kts | 182° |
| 2026-05-05 12:12 | 45.40229 | 11.04274 | 12543 ft | 348 kts | 182° |
| 2026-05-05 12:13 | 45.38102 | 11.04182 | 12285 ft | 340 kts | 182° |
| 2026-05-05 12:13 | 45.35965 | 11.04096 | 11951 ft | 340 kts | 182° |
| 2026-05-05 12:13 | 45.33837 | 11.04013 | 11568 ft | 339 kts | 181° |
| 2026-05-05 12:13 | 45.31737 | 11.03935 | 11119 ft | 330 kts | 181° |
| 2026-05-05 12:14 | 45.29761 | 11.03863 | 10819 ft | 312 kts | 181° |
| 2026-05-05 12:14 | 45.27837 | 11.03795 | 10516 ft | 297 kts | 181° |
| 2026-05-05 12:14 | 45.26024 | 11.03730 | 10373 ft | 282 kts | 181° |
| 2026-05-05 12:14 | 45.24320 | 11.03670 | 10323 ft | 273 kts | 181° |
| 2026-05-05 12:15 | 45.22613 | 11.03611 | 10263 ft | 265 kts | 181° |
| 2026-05-05 12:15 | 45.20955 | 11.03552 | 10205 ft | 257 kts | 181° |
| 2026-05-05 12:15 | 45.19324 | 11.03494 | 10174 ft | 255 kts | 181° |
| 2026-05-05 12:15 | 45.17677 | 11.03436 | 10137 ft | 256 kts | 181° |
| 2026-05-05 12:16 | 45.16048 | 11.03378 | 10085 ft | 256 kts | 181° |
| 2026-05-05 12:16 | 45.14365 | 11.03319 | 9893 ft | 255 kts | 181° |
| 2026-05-05 12:16 | 45.12692 | 11.03260 | 9678 ft | 255 kts | 181° |
| 2026-05-05 12:16 | 45.11073 | 11.03204 | 9460 ft | 253 kts | 181° |
| 2026-05-05 12:17 | 45.09452 | 11.03147 | 9100 ft | 252 kts | 181° |
| 2026-05-05 12:17 | 45.07859 | 11.03091 | 8871 ft | 253 kts | 181° |
| 2026-05-05 12:17 | 45.06222 | 11.03033 | 8609 ft | 255 kts | 181° |
| 2026-05-05 12:17 | 45.04617 | 11.02977 | 8363 ft | 255 kts | 181° |
| 2026-05-05 12:18 | 45.02995 | 11.02920 | 8183 ft | 253 kts | 181° |
| 2026-05-05 12:18 | 45.01379 | 11.02864 | 7981 ft | 251 kts | 181° |
| 2026-05-05 12:18 | 44.99759 | 11.02807 | 7755 ft | 251 kts | 181° |
| 2026-05-05 12:18 | 44.98195 | 11.02753 | 7540 ft | 251 kts | 181° |
| 2026-05-05 12:19 | 44.96621 | 11.02699 | 7323 ft | 250 kts | 182° |
| 2026-05-05 12:19 | 44.95065 | 11.02644 | 7065 ft | 252 kts | 182° |
| 2026-05-05 12:19 | 44.93494 | 11.02589 | 6793 ft | 254 kts | 182° |
| 2026-05-05 12:19 | 44.91923 | 11.02533 | 6523 ft | 252 kts | 182° |
| 2026-05-05 12:20 | 44.90364 | 11.02480 | 6313 ft | 247 kts | 182° |
| 2026-05-05 12:20 | 44.88824 | 11.02426 | 6099 ft | 247 kts | 182° |
| 2026-05-05 12:20 | 44.87275 | 11.02371 | 5883 ft | 247 kts | 182° |
| 2026-05-05 12:20 | 44.85704 | 11.02315 | 5661 ft | 247 kts | 181° |
| 2026-05-05 12:21 | 44.84121 | 11.02260 | 5433 ft | 248 kts | 181° |
| 2026-05-05 12:21 | 44.82564 | 11.02205 | 5209 ft | 248 kts | 181° |
| 2026-05-05 12:21 | 44.81016 | 11.02151 | 4962 ft | 245 kts | 181° |
| 2026-05-05 12:21 | 44.79492 | 11.02099 | 4758 ft | 238 kts | 181° |
| 2026-05-05 12:22 | 44.78012 | 11.02048 | 4571 ft | 234 kts | 181° |
| 2026-05-05 12:22 | 44.76535 | 11.01997 | 4475 ft | 229 kts | 181° |
| 2026-05-05 12:22 | 44.75124 | 11.01899 | 4471 ft | 223 kts | 188° |
| 2026-05-05 12:22 | 44.73800 | 11.01441 | 4413 ft | 225 kts | 201° |
| 2026-05-05 12:23 | 44.72533 | 11.00644 | 4214 ft | 226 kts | 206° |
| 2026-05-05 12:23 | 44.71285 | 10.99751 | 4015 ft | 227 kts | 207° |
| 2026-05-05 12:23 | 44.70050 | 10.98853 | 3824 ft | 227 kts | 207° |
| 2026-05-05 12:23 | 44.68797 | 10.97950 | 3643 ft | 226 kts | 207° |
| 2026-05-05 12:24 | 44.67577 | 10.97101 | 3587 ft | 218 kts | 199° |
| 2026-05-05 12:24 | 44.66269 | 10.96903 | 3558 ft | 207 kts | 166° |
| 2026-05-05 12:24 | 44.65134 | 10.97664 | 3514 ft | 198 kts | 139° |
| 2026-05-05 12:24 | 44.64277 | 10.99003 | 3273 ft | 201 kts | 122° |
| 2026-05-05 12:25 | 44.63642 | 11.00567 | 3052 ft | 202 kts | 115° |
| 2026-05-05 12:25 | 44.63085 | 11.02249 | 2855 ft | 202 kts | 114° |
| 2026-05-05 12:25 | 44.62530 | 11.03920 | 2671 ft | 202 kts | 115° |
| 2026-05-05 12:25 | 44.61965 | 11.05556 | 2589 ft | 195 kts | 115° |
| 2026-05-05 12:26 | 44.61417 | 11.07094 | 2574 ft | 185 kts | 116° |
| 2026-05-05 12:26 | 44.60882 | 11.08573 | 2577 ft | 184 kts | 116° |
| 2026-05-05 12:26 | 44.60344 | 11.10055 | 2589 ft | 179 kts | 116° |
| 2026-05-05 12:26 | 44.59835 | 11.11455 | 2556 ft | 173 kts | 116° |
| 2026-05-05 12:27 | 44.59339 | 11.12825 | 2368 ft | 168 kts | 117° |
| 2026-05-05 12:27 | 44.58859 | 11.14151 | 2153 ft | 163 kts | 117° |
| 2026-05-05 12:27 | 44.58392 | 11.15439 | 1951 ft | 158 kts | 117° |
| 2026-05-05 12:27 | 44.57951 | 11.16657 | 1765 ft | 153 kts | 117° |
| 2026-05-05 12:28 | 44.57522 | 11.17843 | 1590 ft | 147 kts | 117° |
| 2026-05-05 12:28 | 44.57106 | 11.18993 | 1434 ft | 147 kts | 117° |
| 2026-05-05 12:28 | 44.56691 | 11.20139 | 1274 ft | 147 kts | 116° |
| 2026-05-05 12:28 | 44.56280 | 11.21279 | 1109 ft | 147 kts | 116° |
| 2026-05-05 12:29 | 44.55873 | 11.22406 | 944 ft | 147 kts | 116° |
| 2026-05-05 12:29 | 44.55455 | 11.23553 | 788 ft | 146 kts | 115° |
| 2026-05-05 12:29 | 44.55049 | 11.24681 | 626 ft | 146 kts | 116° |
| 2026-05-05 12:29 | 44.54652 | 11.25770 | 465 ft | 146 kts | 115° |
| 2026-05-05 12:30 | 44.54247 | 11.26891 | 270 ft | 145 kts | 113° |
| 2026-05-05 12:30 | 44.53863 | 11.27990 | 129 ft | 142 kts | 116° |
| 2026-05-05 12:30 | 44.53551 | 11.28853 | 129 ft | 80 kts | 116° |
| 2026-05-05 12:30 | 44.53404 | 11.29250 | 131 ft | 38 kts | 116° |
| 2026-05-05 12:31 | 44.53327 | 11.29465 | 133 ft | 20 kts | 122° |
| 2026-05-05 12:31 | 44.53277 | 11.29558 | 133 ft | 13 kts | 132° |
| 2026-05-05 12:31 | 44.53213 | 11.29635 | 133 ft | 14 kts | 146° |
| 2026-05-05 12:31 | 44.53137 | 11.29704 | 133 ft | 15 kts | 147° |
| 2026-05-05 12:32 | 44.53070 | 11.29763 | 133 ft | 10 kts | 154° |
| 2026-05-05 12:32 | 44.53016 | 11.29784 | 133 ft | 8 kts | 178° |
| 2026-05-05 12:32 | 44.52969 | 11.29776 | 134 ft | 6 kts | 195° |
| 2026-05-05 12:32 | 44.52940 | 11.29760 | 134 ft | 3 kts | 203° |
| 2026-05-05 12:33 | 44.52917 | 11.29746 | 134 ft | 4 kts | 205° |
| 2026-05-05 12:33 | 44.52899 | 11.29734 | 135 ft | 0 kts | 207° |